sensor_id;sensor_type;location;lat;lon;timestamp;P1;durP1;ratioP1;P2;durP2;ratioP2
76176;SDS011;64938;47.696;8.066;2023-03-09T00:00:48;1.13;;;1.03;;
76176;SDS011;64938;47.696;8.066;2023-03-09T00:03:14;1.10;;;1.00;;
76176;SDS011;64938;47.696;8.066;2023-03-09T00:05:42;1.07;;;0.97;;
76176;SDS011;64938;47.696;8.066;2023-03-09T00:08:10;1.17;;;1.00;;
76176;SDS011;64938;47.696;8.066;2023-03-09T00:10:38;0.80;;;0.80;;
76176;SDS011;64938;47.696;8.066;2023-03-09T00:13:05;0.80;;;0.80;;
76176;SDS011;64938;47.696;8.066;2023-03-09T00:15:31;1.17;;;1.00;;
76176;SDS011;64938;47.696;8.066;2023-03-09T00:17:57;2.10;;;1.00;;
76176;SDS011;64938;47.696;8.066;2023-03-09T00:20:24;3.13;;;1.10;;
76176;SDS011;64938;47.696;8.066;2023-03-09T00:22:50;0.93;;;0.90;;
76176;SDS011;64938;47.696;8.066;2023-03-09T00:25:17;1.20;;;1.10;;
76176;SDS011;64938;47.696;8.066;2023-03-09T00:27:48;1.10;;;1.00;;
76176;SDS011;64938;47.696;8.066;2023-03-09T00:30:15;1.07;;;0.93;;
76176;SDS011;64938;47.696;8.066;2023-03-09T00:32:41;1.73;;;1.60;;
76176;SDS011;64938;47.696;8.066;2023-03-09T00:35:07;3.73;;;1.20;;
76176;SDS011;64938;47.696;8.066;2023-03-09T00:37:33;3.47;;;1.50;;
76176;SDS011;64938;47.696;8.066;2023-03-09T00:40:03;2.63;;;2.40;;
76176;SDS011;64938;47.696;8.066;2023-03-09T00:42:31;2.83;;;1.33;;
76176;SDS011;64938;47.696;8.066;2023-03-09T00:44:58;3.30;;;1.90;;
76176;SDS011;64938;47.696;8.066;2023-03-09T00:47:25;1.60;;;1.50;;
76176;SDS011;64938;47.696;8.066;2023-03-09T00:49:50;2.10;;;1.60;;
76176;SDS011;64938;47.696;8.066;2023-03-09T00:52:16;2.20;;;1.53;;
76176;SDS011;64938;47.696;8.066;2023-03-09T00:54:42;1.73;;;1.63;;
76176;SDS011;64938;47.696;8.066;2023-03-09T00:57:24;3.50;;;1.60;;
76176;SDS011;64938;47.696;8.066;2023-03-09T00:59:50;1.80;;;1.70;;
76176;SDS011;64938;47.696;8.066;2023-03-09T01:02:18;5.57;;;2.53;;
76176;SDS011;64938;47.696;8.066;2023-03-09T01:04:45;3.10;;;1.60;;
76176;SDS011;64938;47.696;8.066;2023-03-09T01:07:11;3.30;;;2.10;;
76176;SDS011;64938;47.696;8.066;2023-03-09T01:09:37;2.00;;;1.87;;
76176;SDS011;64938;47.696;8.066;2023-03-09T01:12:04;1.93;;;1.53;;
76176;SDS011;64938;47.696;8.066;2023-03-09T01:14:31;1.83;;;1.70;;
76176;SDS011;64938;47.696;8.066;2023-03-09T01:16:57;2.33;;;1.90;;
76176;SDS011;64938;47.696;8.066;2023-03-09T01:19:22;4.00;;;1.80;;
76176;SDS011;64938;47.696;8.066;2023-03-09T01:21:48;3.67;;;1.73;;
76176;SDS011;64938;47.696;8.066;2023-03-09T01:24:14;1.70;;;1.57;;
76176;SDS011;64938;47.696;8.066;2023-03-09T01:26:40;2.17;;;1.50;;
76176;SDS011;64938;47.696;8.066;2023-03-09T01:29:06;4.53;;;2.20;;
76176;SDS011;64938;47.696;8.066;2023-03-09T01:31:32;1.87;;;1.30;;
76176;SDS011;64938;47.696;8.066;2023-03-09T01:33:57;1.50;;;1.40;;
76176;SDS011;64938;47.696;8.066;2023-03-09T01:36:23;2.93;;;1.30;;
76176;SDS011;64938;47.696;8.066;2023-03-09T01:38:49;2.50;;;1.40;;
76176;SDS011;64938;47.696;8.066;2023-03-09T01:41:15;2.57;;;1.30;;
76176;SDS011;64938;47.696;8.066;2023-03-09T01:43:44;6.10;;;1.60;;
76176;SDS011;64938;47.696;8.066;2023-03-09T01:48:47;3.33;;;1.83;;
76176;SDS011;64938;47.696;8.066;2023-03-09T01:51:16;4.90;;;1.80;;
76176;SDS011;64938;47.696;8.066;2023-03-09T01:53:43;2.33;;;1.73;;
76176;SDS011;64938;47.696;8.066;2023-03-09T01:56:09;3.53;;;1.70;;
76176;SDS011;64938;47.696;8.066;2023-03-09T01:58:35;3.57;;;1.40;;
76176;SDS011;64938;47.696;8.066;2023-03-09T02:01:01;3.27;;;1.80;;
76176;SDS011;64938;47.696;8.066;2023-03-09T02:03:28;3.50;;;1.73;;
76176;SDS011;64938;47.696;8.066;2023-03-09T02:08:31;3.50;;;1.70;;
76176;SDS011;64938;47.696;8.066;2023-03-09T02:10:58;4.60;;;2.00;;
76176;SDS011;64938;47.696;8.066;2023-03-09T02:13:29;3.37;;;1.77;;
76176;SDS011;64938;47.696;8.066;2023-03-09T02:15:57;2.43;;;1.50;;
76176;SDS011;64938;47.696;8.066;2023-03-09T02:18:23;4.30;;;1.87;;
76176;SDS011;64938;47.696;8.066;2023-03-09T02:23:41;5.93;;;2.07;;
76176;SDS011;64938;47.696;8.066;2023-03-09T02:26:12;4.60;;;1.77;;
76176;SDS011;64938;47.696;8.066;2023-03-09T02:28:59;3.30;;;1.63;;
76176;SDS011;64938;47.696;8.066;2023-03-09T02:31:25;5.57;;;1.80;;
76176;SDS011;64938;47.696;8.066;2023-03-09T02:33:51;4.23;;;1.87;;
76176;SDS011;64938;47.696;8.066;2023-03-09T02:36:17;3.90;;;1.60;;
76176;SDS011;64938;47.696;8.066;2023-03-09T02:38:43;4.23;;;1.87;;
76176;SDS011;64938;47.696;8.066;2023-03-09T02:41:09;3.40;;;1.93;;
76176;SDS011;64938;47.696;8.066;2023-03-09T02:43:36;8.00;;;2.17;;
76176;SDS011;64938;47.696;8.066;2023-03-09T02:46:05;5.10;;;2.00;;
76176;SDS011;64938;47.696;8.066;2023-03-09T02:48:31;5.03;;;1.90;;
76176;SDS011;64938;47.696;8.066;2023-03-09T02:50:56;5.20;;;2.20;;
76176;SDS011;64938;47.696;8.066;2023-03-09T02:53:22;4.00;;;1.73;;
76176;SDS011;64938;47.696;8.066;2023-03-09T02:55:48;5.57;;;1.80;;
76176;SDS011;64938;47.696;8.066;2023-03-09T02:58:14;2.20;;;1.57;;
76176;SDS011;64938;47.696;8.066;2023-03-09T03:00:39;6.20;;;1.70;;
76176;SDS011;64938;47.696;8.066;2023-03-09T03:03:05;6.27;;;1.60;;
76176;SDS011;64938;47.696;8.066;2023-03-09T03:05:31;4.30;;;1.70;;
76176;SDS011;64938;47.696;8.066;2023-03-09T03:07:56;2.13;;;1.30;;
76176;SDS011;64938;47.696;8.066;2023-03-09T03:10:22;2.00;;;1.23;;
76176;SDS011;64938;47.696;8.066;2023-03-09T03:12:48;1.20;;;0.97;;
76176;SDS011;64938;47.696;8.066;2023-03-09T03:15:13;1.47;;;0.80;;
76176;SDS011;64938;47.696;8.066;2023-03-09T03:17:39;1.40;;;0.73;;
76176;SDS011;64938;47.696;8.066;2023-03-09T03:20:05;0.60;;;0.50;;
76176;SDS011;64938;47.696;8.066;2023-03-09T03:22:37;0.87;;;0.50;;
76176;SDS011;64938;47.696;8.066;2023-03-09T03:25:03;1.10;;;0.60;;
76176;SDS011;64938;47.696;8.066;2023-03-09T03:27:29;1.67;;;0.70;;
76176;SDS011;64938;47.696;8.066;2023-03-09T03:29:56;1.00;;;0.60;;
76176;SDS011;64938;47.696;8.066;2023-03-09T03:32:23;0.80;;;0.50;;
76176;SDS011;64938;47.696;8.066;2023-03-09T03:35:09;1.13;;;0.70;;
76176;SDS011;64938;47.696;8.066;2023-03-09T03:37:39;0.70;;;0.50;;
76176;SDS011;64938;47.696;8.066;2023-03-09T03:40:08;1.43;;;0.70;;
76176;SDS011;64938;47.696;8.066;2023-03-09T03:42:34;0.90;;;0.80;;
76176;SDS011;64938;47.696;8.066;2023-03-09T03:45:00;1.37;;;0.80;;
76176;SDS011;64938;47.696;8.066;2023-03-09T03:47:27;0.70;;;0.70;;
76176;SDS011;64938;47.696;8.066;2023-03-09T03:49:53;0.90;;;0.60;;
76176;SDS011;64938;47.696;8.066;2023-03-09T03:52:18;1.43;;;0.60;;
76176;SDS011;64938;47.696;8.066;2023-03-09T03:54:44;1.00;;;0.90;;
76176;SDS011;64938;47.696;8.066;2023-03-09T03:57:10;1.13;;;0.80;;
76176;SDS011;64938;47.696;8.066;2023-03-09T03:59:36;1.43;;;0.80;;
76176;SDS011;64938;47.696;8.066;2023-03-09T04:02:02;0.70;;;0.60;;
76176;SDS011;64938;47.696;8.066;2023-03-09T04:04:27;0.63;;;0.60;;
76176;SDS011;64938;47.696;8.066;2023-03-09T04:06:53;0.90;;;0.60;;
76176;SDS011;64938;47.696;8.066;2023-03-09T04:09:18;0.87;;;0.60;;
76176;SDS011;64938;47.696;8.066;2023-03-09T04:11:44;1.27;;;0.57;;
76176;SDS011;64938;47.696;8.066;2023-03-09T04:14:11;0.90;;;0.70;;
76176;SDS011;64938;47.696;8.066;2023-03-09T04:16:36;1.90;;;0.90;;
76176;SDS011;64938;47.696;8.066;2023-03-09T04:19:03;1.67;;;0.67;;
76176;SDS011;64938;47.696;8.066;2023-03-09T04:21:29;0.60;;;0.50;;
76176;SDS011;64938;47.696;8.066;2023-03-09T04:23:55;0.50;;;0.40;;
76176;SDS011;64938;47.696;8.066;2023-03-09T04:26:20;0.50;;;0.40;;
76176;SDS011;64938;47.696;8.066;2023-03-09T04:28:46;0.50;;;0.40;;
76176;SDS011;64938;47.696;8.066;2023-03-09T04:31:12;0.50;;;0.30;;
76176;SDS011;64938;47.696;8.066;2023-03-09T04:33:37;0.60;;;0.40;;
76176;SDS011;64938;47.696;8.066;2023-03-09T04:36:08;0.70;;;0.40;;
76176;SDS011;64938;47.696;8.066;2023-03-09T04:38:35;0.93;;;0.33;;
76176;SDS011;64938;47.696;8.066;2023-03-09T04:41:01;0.87;;;0.40;;
76176;SDS011;64938;47.696;8.066;2023-03-09T04:43:27;0.60;;;0.50;;
76176;SDS011;64938;47.696;8.066;2023-03-09T04:45:52;0.63;;;0.60;;
76176;SDS011;64938;47.696;8.066;2023-03-09T04:48:18;0.73;;;0.50;;
76176;SDS011;64938;47.696;8.066;2023-03-09T04:50:44;2.10;;;0.70;;
76176;SDS011;64938;47.696;8.066;2023-03-09T04:53:10;0.67;;;0.50;;
76176;SDS011;64938;47.696;8.066;2023-03-09T04:55:36;0.67;;;0.60;;
76176;SDS011;64938;47.696;8.066;2023-03-09T04:58:03;1.37;;;0.50;;
76176;SDS011;64938;47.696;8.066;2023-03-09T05:00:29;0.90;;;0.50;;
76176;SDS011;64938;47.696;8.066;2023-03-09T05:02:55;0.83;;;0.53;;
76176;SDS011;64938;47.696;8.066;2023-03-09T05:05:21;2.47;;;0.77;;
76176;SDS011;64938;47.696;8.066;2023-03-09T05:07:46;3.60;;;0.70;;
76176;SDS011;64938;47.696;8.066;2023-03-09T05:10:12;1.20;;;0.80;;
76176;SDS011;64938;47.696;8.066;2023-03-09T05:12:38;1.63;;;0.70;;
76176;SDS011;64938;47.696;8.066;2023-03-09T05:15:06;1.83;;;0.90;;
76176;SDS011;64938;47.696;8.066;2023-03-09T05:17:32;5.70;;;1.40;;
76176;SDS011;64938;47.696;8.066;2023-03-09T05:19:58;2.77;;;1.00;;
76176;SDS011;64938;47.696;8.066;2023-03-09T05:22:24;5.50;;;1.00;;
76176;SDS011;64938;47.696;8.066;2023-03-09T05:24:49;1.70;;;1.10;;
76176;SDS011;64938;47.696;8.066;2023-03-09T05:27:15;3.90;;;1.03;;
76176;SDS011;64938;47.696;8.066;2023-03-09T05:29:41;1.63;;;1.07;;
76176;SDS011;64938;47.696;8.066;2023-03-09T05:32:06;3.03;;;1.17;;
76176;SDS011;64938;47.696;8.066;2023-03-09T05:34:32;14.00;;;1.93;;
76176;SDS011;64938;47.696;8.066;2023-03-09T05:36:59;6.60;;;2.00;;
76176;SDS011;64938;47.696;8.066;2023-03-09T05:39:24;6.30;;;2.00;;
76176;SDS011;64938;47.696;8.066;2023-03-09T05:41:50;4.83;;;1.60;;
76176;SDS011;64938;47.696;8.066;2023-03-09T05:44:16;6.80;;;2.50;;
76176;SDS011;64938;47.696;8.066;2023-03-09T05:46:41;3.30;;;2.17;;
76176;SDS011;64938;47.696;8.066;2023-03-09T05:49:07;8.67;;;2.60;;
76176;SDS011;64938;47.696;8.066;2023-03-09T05:51:33;8.13;;;2.33;;
76176;SDS011;64938;47.696;8.066;2023-03-09T05:53:58;6.50;;;2.43;;
76176;SDS011;64938;47.696;8.066;2023-03-09T05:56:24;6.93;;;2.30;;
76176;SDS011;64938;47.696;8.066;2023-03-09T05:58:50;7.90;;;2.83;;
76176;SDS011;64938;47.696;8.066;2023-03-09T06:01:17;6.87;;;2.13;;
76176;SDS011;64938;47.696;8.066;2023-03-09T06:03:48;8.03;;;2.87;;
76176;SDS011;64938;47.696;8.066;2023-03-09T06:06:16;4.37;;;1.70;;
76176;SDS011;64938;47.696;8.066;2023-03-09T06:08:41;4.07;;;2.20;;
76176;SDS011;64938;47.696;8.066;2023-03-09T06:11:07;8.80;;;2.17;;
76176;SDS011;64938;47.696;8.066;2023-03-09T06:13:34;6.93;;;2.30;;
76176;SDS011;64938;47.696;8.066;2023-03-09T06:16:04;4.23;;;2.30;;
76176;SDS011;64938;47.696;8.066;2023-03-09T06:18:30;5.40;;;2.27;;
76176;SDS011;64938;47.696;8.066;2023-03-09T06:21:04;12.70;;;2.20;;
76176;SDS011;64938;47.696;8.066;2023-03-09T06:23:31;4.90;;;1.90;;
76176;SDS011;64938;47.696;8.066;2023-03-09T06:25:57;6.20;;;2.40;;
76176;SDS011;64938;47.696;8.066;2023-03-09T06:28:23;4.03;;;1.97;;
76176;SDS011;64938;47.696;8.066;2023-03-09T06:30:49;5.60;;;2.20;;
76176;SDS011;64938;47.696;8.066;2023-03-09T06:33:15;4.50;;;1.70;;
76176;SDS011;64938;47.696;8.066;2023-03-09T06:35:41;5.00;;;1.80;;
76176;SDS011;64938;47.696;8.066;2023-03-09T06:38:07;6.50;;;2.30;;
76176;SDS011;64938;47.696;8.066;2023-03-09T06:40:33;3.27;;;1.80;;
76176;SDS011;64938;47.696;8.066;2023-03-09T06:42:59;2.63;;;1.87;;
76176;SDS011;64938;47.696;8.066;2023-03-09T06:45:24;5.10;;;2.17;;
76176;SDS011;64938;47.696;8.066;2023-03-09T06:47:54;10.43;;;2.70;;
76176;SDS011;64938;47.696;8.066;2023-03-09T06:50:21;11.10;;;2.83;;
76176;SDS011;64938;47.696;8.066;2023-03-09T06:52:47;6.07;;;2.23;;
76176;SDS011;64938;47.696;8.066;2023-03-09T06:55:13;4.93;;;1.73;;
76176;SDS011;64938;47.696;8.066;2023-03-09T06:57:39;3.93;;;2.20;;
76176;SDS011;64938;47.696;8.066;2023-03-09T07:00:05;7.10;;;2.03;;
76176;SDS011;64938;47.696;8.066;2023-03-09T07:02:32;5.53;;;1.87;;
76176;SDS011;64938;47.696;8.066;2023-03-09T07:04:58;5.20;;;2.00;;
76176;SDS011;64938;47.696;8.066;2023-03-09T07:07:24;5.17;;;1.90;;
76176;SDS011;64938;47.696;8.066;2023-03-09T07:09:49;6.90;;;2.20;;
76176;SDS011;64938;47.696;8.066;2023-03-09T07:12:15;5.80;;;2.20;;
76176;SDS011;64938;47.696;8.066;2023-03-09T07:14:40;5.63;;;1.80;;
76176;SDS011;64938;47.696;8.066;2023-03-09T07:17:08;7.13;;;2.43;;
76176;SDS011;64938;47.696;8.066;2023-03-09T07:19:37;3.50;;;2.17;;
76176;SDS011;64938;47.696;8.066;2023-03-09T07:22:02;3.57;;;1.60;;
76176;SDS011;64938;47.696;8.066;2023-03-09T07:24:28;2.87;;;1.77;;
76176;SDS011;64938;47.696;8.066;2023-03-09T07:26:56;5.27;;;1.67;;
76176;SDS011;64938;47.696;8.066;2023-03-09T07:29:21;5.40;;;2.00;;
76176;SDS011;64938;47.696;8.066;2023-03-09T07:31:47;3.80;;;2.17;;
76176;SDS011;64938;47.696;8.066;2023-03-09T07:34:13;4.33;;;1.70;;
76176;SDS011;64938;47.696;8.066;2023-03-09T07:36:39;2.80;;;1.57;;
76176;SDS011;64938;47.696;8.066;2023-03-09T07:39:05;4.70;;;1.53;;
76176;SDS011;64938;47.696;8.066;2023-03-09T07:41:30;3.53;;;1.60;;
76176;SDS011;64938;47.696;8.066;2023-03-09T07:43:57;6.50;;;1.90;;
76176;SDS011;64938;47.696;8.066;2023-03-09T07:46:23;3.60;;;1.50;;
76176;SDS011;64938;47.696;8.066;2023-03-09T07:48:49;7.40;;;1.80;;
76176;SDS011;64938;47.696;8.066;2023-03-09T07:51:15;5.17;;;2.20;;
76176;SDS011;64938;47.696;8.066;2023-03-09T07:53:40;4.83;;;1.63;;
76176;SDS011;64938;47.696;8.066;2023-03-09T07:56:06;4.40;;;1.90;;
76176;SDS011;64938;47.696;8.066;2023-03-09T07:58:34;5.40;;;1.70;;
76176;SDS011;64938;47.696;8.066;2023-03-09T08:01:02;2.70;;;1.70;;
76176;SDS011;64938;47.696;8.066;2023-03-09T08:03:28;4.87;;;1.73;;
76176;SDS011;64938;47.696;8.066;2023-03-09T08:05:54;2.93;;;1.50;;
76176;SDS011;64938;47.696;8.066;2023-03-09T08:08:22;3.47;;;1.57;;
76176;SDS011;64938;47.696;8.066;2023-03-09T08:10:49;4.33;;;2.50;;
76176;SDS011;64938;47.696;8.066;2023-03-09T08:13:15;3.50;;;1.60;;
76176;SDS011;64938;47.696;8.066;2023-03-09T08:15:41;3.53;;;1.37;;
76176;SDS011;64938;47.696;8.066;2023-03-09T08:18:06;6.10;;;1.83;;
76176;SDS011;64938;47.696;8.066;2023-03-09T08:20:32;3.90;;;2.10;;
76176;SDS011;64938;47.696;8.066;2023-03-09T08:22:58;7.37;;;1.80;;
76176;SDS011;64938;47.696;8.066;2023-03-09T08:25:24;4.50;;;1.57;;
76176;SDS011;64938;47.696;8.066;2023-03-09T08:27:50;4.40;;;1.63;;
76176;SDS011;64938;47.696;8.066;2023-03-09T08:30:17;4.13;;;1.47;;
76176;SDS011;64938;47.696;8.066;2023-03-09T08:32:46;7.60;;;1.93;;
76176;SDS011;64938;47.696;8.066;2023-03-09T08:35:14;4.17;;;1.50;;
76176;SDS011;64938;47.696;8.066;2023-03-09T08:37:40;4.73;;;1.50;;
76176;SDS011;64938;47.696;8.066;2023-03-09T08:40:06;5.43;;;1.70;;
76176;SDS011;64938;47.696;8.066;2023-03-09T08:42:32;6.80;;;1.67;;
76176;SDS011;64938;47.696;8.066;2023-03-09T08:44:59;3.83;;;1.40;;
76176;SDS011;64938;47.696;8.066;2023-03-09T08:47:35;4.90;;;1.50;;
76176;SDS011;64938;47.696;8.066;2023-03-09T08:50:01;5.03;;;1.40;;
76176;SDS011;64938;47.696;8.066;2023-03-09T08:52:28;3.20;;;1.60;;
76176;SDS011;64938;47.696;8.066;2023-03-09T08:55:00;7.00;;;1.60;;
76176;SDS011;64938;47.696;8.066;2023-03-09T08:57:27;5.53;;;1.77;;
76176;SDS011;64938;47.696;8.066;2023-03-09T08:59:54;4.03;;;2.07;;
76176;SDS011;64938;47.696;8.066;2023-03-09T09:02:20;6.37;;;1.63;;
76176;SDS011;64938;47.696;8.066;2023-03-09T09:04:46;4.47;;;1.87;;
76176;SDS011;64938;47.696;8.066;2023-03-09T09:07:12;5.30;;;1.30;;
76176;SDS011;64938;47.696;8.066;2023-03-09T09:09:39;3.63;;;1.70;;
76176;SDS011;64938;47.696;8.066;2023-03-09T09:12:05;3.43;;;1.47;;
76176;SDS011;64938;47.696;8.066;2023-03-09T09:14:31;6.73;;;1.90;;
76176;SDS011;64938;47.696;8.066;2023-03-09T09:16:58;2.43;;;1.43;;
76176;SDS011;64938;47.696;8.066;2023-03-09T09:19:27;3.77;;;1.60;;
76176;SDS011;64938;47.696;8.066;2023-03-09T09:21:52;5.37;;;1.30;;
76176;SDS011;64938;47.696;8.066;2023-03-09T09:24:20;4.90;;;1.70;;
76176;SDS011;64938;47.696;8.066;2023-03-09T09:26:48;3.90;;;1.40;;
76176;SDS011;64938;47.696;8.066;2023-03-09T09:29:14;6.47;;;1.67;;
76176;SDS011;64938;47.696;8.066;2023-03-09T09:31:40;4.40;;;1.20;;
76176;SDS011;64938;47.696;8.066;2023-03-09T09:34:07;7.80;;;1.53;;
76176;SDS011;64938;47.696;8.066;2023-03-09T09:36:57;3.77;;;1.10;;
76176;SDS011;64938;47.696;8.066;2023-03-09T09:39:25;4.20;;;1.50;;
76176;SDS011;64938;47.696;8.066;2023-03-09T09:41:53;5.30;;;1.70;;
76176;SDS011;64938;47.696;8.066;2023-03-09T09:44:24;3.70;;;1.67;;
76176;SDS011;64938;47.696;8.066;2023-03-09T09:46:55;7.17;;;1.43;;
76176;SDS011;64938;47.696;8.066;2023-03-09T09:49:24;2.40;;;1.50;;
76176;SDS011;64938;47.696;8.066;2023-03-09T09:57:23;6.10;;;1.83;;
76176;SDS011;64938;47.696;8.066;2023-03-09T10:00:15;6.50;;;2.03;;
76176;SDS011;64938;47.696;8.066;2023-03-09T10:02:49;6.10;;;1.60;;
76176;SDS011;64938;47.696;8.066;2023-03-09T10:07:48;5.33;;;1.33;;
76176;SDS011;64938;47.696;8.066;2023-03-09T10:10:19;2.70;;;1.37;;
76176;SDS011;64938;47.696;8.066;2023-03-09T10:12:47;3.57;;;1.47;;
76176;SDS011;64938;47.696;8.066;2023-03-09T10:15:18;4.67;;;1.77;;
76176;SDS011;64938;47.696;8.066;2023-03-09T10:17:51;3.00;;;1.30;;
76176;SDS011;64938;47.696;8.066;2023-03-09T10:22:49;4.67;;;1.10;;
76176;SDS011;64938;47.696;8.066;2023-03-09T10:25:16;4.60;;;1.30;;
76176;SDS011;64938;47.696;8.066;2023-03-09T10:33:18;3.57;;;1.07;;
76176;SDS011;64938;47.696;8.066;2023-03-09T10:35:55;4.77;;;1.27;;
76176;SDS011;64938;47.696;8.066;2023-03-09T10:38:27;2.60;;;1.37;;
76176;SDS011;64938;47.696;8.066;2023-03-09T10:40:55;4.37;;;1.20;;
76176;SDS011;64938;47.696;8.066;2023-03-09T10:43:30;2.40;;;1.03;;
76176;SDS011;64938;47.696;8.066;2023-03-09T10:48:38;7.27;;;1.70;;
76176;SDS011;64938;47.696;8.066;2023-03-09T10:51:05;3.70;;;1.27;;
76176;SDS011;64938;47.696;8.066;2023-03-09T10:53:35;6.23;;;1.50;;
76176;SDS011;64938;47.696;8.066;2023-03-09T10:56:04;4.57;;;1.30;;
76176;SDS011;64938;47.696;8.066;2023-03-09T10:58:31;5.07;;;1.17;;
76176;SDS011;64938;47.696;8.066;2023-03-09T11:00:58;4.07;;;1.40;;
76176;SDS011;64938;47.696;8.066;2023-03-09T11:03:32;5.40;;;2.03;;
76176;SDS011;64938;47.696;8.066;2023-03-09T11:08:33;5.20;;;1.77;;
76176;SDS011;64938;47.696;8.066;2023-03-09T11:11:00;8.00;;;4.10;;
76176;SDS011;64938;47.696;8.066;2023-03-09T11:13:28;8.13;;;2.17;;
76176;SDS011;64938;47.696;8.066;2023-03-09T11:18:44;3.77;;;1.67;;
76176;SDS011;64938;47.696;8.066;2023-03-09T11:21:20;4.87;;;2.30;;
76176;SDS011;64938;47.696;8.066;2023-03-09T11:23:47;4.30;;;2.00;;
76176;SDS011;64938;47.696;8.066;2023-03-09T11:31:40;4.80;;;1.40;;
76176;SDS011;64938;47.696;8.066;2023-03-09T11:34:11;6.13;;;1.50;;
76176;SDS011;64938;47.696;8.066;2023-03-09T11:36:39;4.73;;;1.73;;
76176;SDS011;64938;47.696;8.066;2023-03-09T11:39:13;5.43;;;1.50;;
76176;SDS011;64938;47.696;8.066;2023-03-09T11:41:43;6.30;;;2.40;;
76176;SDS011;64938;47.696;8.066;2023-03-09T11:44:15;4.07;;;1.60;;
76176;SDS011;64938;47.696;8.066;2023-03-09T11:46:50;6.53;;;2.17;;
76176;SDS011;64938;47.696;8.066;2023-03-09T11:49:18;5.00;;;1.60;;
76176;SDS011;64938;47.696;8.066;2023-03-09T11:51:48;4.30;;;1.70;;
76176;SDS011;64938;47.696;8.066;2023-03-09T11:57:02;8.90;;;1.47;;
76176;SDS011;64938;47.696;8.066;2023-03-09T12:04:47;5.07;;;1.70;;
76176;SDS011;64938;47.696;8.066;2023-03-09T12:12:48;7.47;;;1.80;;
76176;SDS011;64938;47.696;8.066;2023-03-09T12:15:21;3.30;;;1.47;;
76176;SDS011;64938;47.696;8.066;2023-03-09T12:17:56;3.63;;;1.50;;
76176;SDS011;64938;47.696;8.066;2023-03-09T12:20:26;3.80;;;1.70;;
76176;SDS011;64938;47.696;8.066;2023-03-09T12:22:56;3.97;;;1.37;;
76176;SDS011;64938;47.696;8.066;2023-03-09T12:25:23;1.80;;;1.20;;
76176;SDS011;64938;47.696;8.066;2023-03-09T12:27:50;3.33;;;1.30;;
76176;SDS011;64938;47.696;8.066;2023-03-09T12:32:43;3.40;;;1.80;;
76176;SDS011;64938;47.696;8.066;2023-03-09T12:35:11;3.23;;;1.80;;
76176;SDS011;64938;47.696;8.066;2023-03-09T12:42:58;6.53;;;1.70;;
76176;SDS011;64938;47.696;8.066;2023-03-09T12:45:42;4.20;;;1.60;;
76176;SDS011;64938;47.696;8.066;2023-03-09T12:53:27;5.10;;;1.60;;
76176;SDS011;64938;47.696;8.066;2023-03-09T12:55:56;4.83;;;1.40;;
76176;SDS011;64938;47.696;8.066;2023-03-09T13:03:23;2.60;;;1.57;;
76176;SDS011;64938;47.696;8.066;2023-03-09T13:05:51;6.37;;;1.70;;
76176;SDS011;64938;47.696;8.066;2023-03-09T13:08:19;4.33;;;1.63;;
76176;SDS011;64938;47.696;8.066;2023-03-09T13:11:17;5.60;;;1.50;;
76176;SDS011;64938;47.696;8.066;2023-03-09T13:13:46;6.17;;;1.77;;
76176;SDS011;64938;47.696;8.066;2023-03-09T13:19:28;5.63;;;1.80;;
76176;SDS011;64938;47.696;8.066;2023-03-09T13:21:48;6.27;;;1.20;;
76176;SDS011;64938;47.696;8.066;2023-03-09T13:24:21;4.10;;;1.30;;
76176;SDS011;64938;47.696;8.066;2023-03-09T13:26:49;2.93;;;1.57;;
76176;SDS011;64938;47.696;8.066;2023-03-09T13:29:19;4.60;;;1.70;;
76176;SDS011;64938;47.696;8.066;2023-03-09T13:31:49;3.50;;;1.70;;
76176;SDS011;64938;47.696;8.066;2023-03-09T13:34:17;4.67;;;1.70;;
76176;SDS011;64938;47.696;8.066;2023-03-09T13:36:48;5.80;;;1.73;;
76176;SDS011;64938;47.696;8.066;2023-03-09T13:39:16;7.93;;;2.23;;
76176;SDS011;64938;47.696;8.066;2023-03-09T13:41:43;5.93;;;1.70;;
76176;SDS011;64938;47.696;8.066;2023-03-09T13:44:12;5.23;;;2.07;;
76176;SDS011;64938;47.696;8.066;2023-03-09T13:46:40;3.00;;;1.10;;
76176;SDS011;64938;47.696;8.066;2023-03-09T13:49:17;4.30;;;1.83;;
76176;SDS011;64938;47.696;8.066;2023-03-09T13:51:50;4.73;;;1.70;;
76176;SDS011;64938;47.696;8.066;2023-03-09T13:54:26;4.87;;;1.70;;
76176;SDS011;64938;47.696;8.066;2023-03-09T13:56:56;5.50;;;1.70;;
76176;SDS011;64938;47.696;8.066;2023-03-09T13:59:30;7.20;;;1.57;;
76176;SDS011;64938;47.696;8.066;2023-03-09T14:02:18;4.20;;;1.73;;
76176;SDS011;64938;47.696;8.066;2023-03-09T14:04:45;4.90;;;1.60;;
76176;SDS011;64938;47.696;8.066;2023-03-09T14:07:12;9.33;;;2.20;;
76176;SDS011;64938;47.696;8.066;2023-03-09T14:09:39;5.30;;;2.13;;
76176;SDS011;64938;47.696;8.066;2023-03-09T14:12:05;5.17;;;1.77;;
76176;SDS011;64938;47.696;8.066;2023-03-09T14:14:31;4.57;;;2.70;;
76176;SDS011;64938;47.696;8.066;2023-03-09T14:16:59;4.83;;;1.60;;
76176;SDS011;64938;47.696;8.066;2023-03-09T14:19:29;5.30;;;1.53;;
76176;SDS011;64938;47.696;8.066;2023-03-09T14:21:56;7.17;;;1.50;;
76176;SDS011;64938;47.696;8.066;2023-03-09T14:24:38;6.37;;;1.50;;
76176;SDS011;64938;47.696;8.066;2023-03-09T14:29:54;3.40;;;1.47;;
76176;SDS011;64938;47.696;8.066;2023-03-09T14:34:48;4.40;;;1.80;;
76176;SDS011;64938;47.696;8.066;2023-03-09T14:37:19;2.70;;;1.33;;
76176;SDS011;64938;47.696;8.066;2023-03-09T14:39:54;5.27;;;1.60;;
76176;SDS011;64938;47.696;8.066;2023-03-09T14:42:25;3.20;;;1.50;;
76176;SDS011;64938;47.696;8.066;2023-03-09T14:45:02;4.50;;;1.47;;
76176;SDS011;64938;47.696;8.066;2023-03-09T14:47:35;5.07;;;2.00;;
76176;SDS011;64938;47.696;8.066;2023-03-09T14:50:02;3.70;;;1.20;;
76176;SDS011;64938;47.696;8.066;2023-03-09T14:52:29;5.73;;;1.50;;
76176;SDS011;64938;47.696;8.066;2023-03-09T14:54:57;1.97;;;1.10;;
76176;SDS011;64938;47.696;8.066;2023-03-09T14:57:24;2.97;;;1.40;;
76176;SDS011;64938;47.696;8.066;2023-03-09T14:59:53;3.33;;;1.37;;
76176;SDS011;64938;47.696;8.066;2023-03-09T15:02:19;4.10;;;1.57;;
76176;SDS011;64938;47.696;8.066;2023-03-09T15:04:45;3.57;;;1.50;;
76176;SDS011;64938;47.696;8.066;2023-03-09T15:07:13;5.67;;;1.40;;
76176;SDS011;64938;47.696;8.066;2023-03-09T15:09:39;5.03;;;1.37;;
76176;SDS011;64938;47.696;8.066;2023-03-09T15:12:09;6.70;;;1.60;;
76176;SDS011;64938;47.696;8.066;2023-03-09T15:14:37;4.80;;;1.70;;
76176;SDS011;64938;47.696;8.066;2023-03-09T15:17:04;3.93;;;1.60;;
76176;SDS011;64938;47.696;8.066;2023-03-09T15:19:31;4.63;;;1.20;;
76176;SDS011;64938;47.696;8.066;2023-03-09T15:21:57;3.50;;;1.50;;
76176;SDS011;64938;47.696;8.066;2023-03-09T15:24:24;4.60;;;1.60;;
76176;SDS011;64938;47.696;8.066;2023-03-09T15:26:52;2.40;;;1.23;;
76176;SDS011;64938;47.696;8.066;2023-03-09T15:29:21;4.77;;;1.70;;
76176;SDS011;64938;47.696;8.066;2023-03-09T15:31:46;2.33;;;1.20;;
76176;SDS011;64938;47.696;8.066;2023-03-09T15:34:12;2.23;;;1.20;;
76176;SDS011;64938;47.696;8.066;2023-03-09T15:36:38;5.83;;;1.50;;
76176;SDS011;64938;47.696;8.066;2023-03-09T15:39:04;5.63;;;1.97;;
76176;SDS011;64938;47.696;8.066;2023-03-09T15:41:30;5.00;;;1.97;;
76176;SDS011;64938;47.696;8.066;2023-03-09T15:43:56;3.13;;;1.20;;
76176;SDS011;64938;47.696;8.066;2023-03-09T15:46:21;3.17;;;1.50;;
76176;SDS011;64938;47.696;8.066;2023-03-09T15:48:47;2.50;;;1.10;;
76176;SDS011;64938;47.696;8.066;2023-03-09T15:51:13;4.10;;;1.70;;
76176;SDS011;64938;47.696;8.066;2023-03-09T15:53:41;3.10;;;1.30;;
76176;SDS011;64938;47.696;8.066;2023-03-09T15:56:08;2.53;;;1.30;;
76176;SDS011;64938;47.696;8.066;2023-03-09T15:58:36;1.53;;;0.97;;
76176;SDS011;64938;47.696;8.066;2023-03-09T16:01:04;2.43;;;1.10;;
76176;SDS011;64938;47.696;8.066;2023-03-09T16:03:33;4.07;;;1.60;;
76176;SDS011;64938;47.696;8.066;2023-03-09T16:05:59;2.80;;;1.30;;
76176;SDS011;64938;47.696;8.066;2023-03-09T16:08:25;4.17;;;1.37;;